X  CloseMetar Aviation Weather Data     EGGD Bristol Airport

Temperature

10°C Temperature

10°C Dewpoint

100% Humidity



Wind

26 KM/H

16 MPH

 7 M/S

14 KTS



240°
West South
West
Current Conditions

Rain Rain
Pressure 1000.92 (hPa) - 29.56 (in)
Visibility 0.6 (mi) - 1 (km)
Airport
Airport-code EGGD

Location Bristol Airport 9 (mi)

Metar:
EGGD 280350Z AUTO 24014KT 200V270 1000 RA VV/// 10/10 Q1001

Time: 2021-01-28 03:50